createdAt,value
2023-04-19T00:02:38.207Z,1018.71
2023-04-19T00:08:57.984Z,1018.71
2023-04-19T00:15:21.047Z,1018.69
2023-04-19T00:21:41.007Z,1018.69
2023-04-19T00:28:04.007Z,1018.61
2023-04-19T00:34:24.001Z,1018.59
2023-04-19T00:40:47.000Z,1018.57
2023-04-19T00:47:06.969Z,1018.57
2023-04-19T00:53:30.011Z,1018.49
2023-04-19T00:59:49.998Z,1018.41
2023-04-19T01:06:13.047Z,1018.35
2023-04-19T01:12:33.048Z,1018.21
2023-04-19T01:18:56.023Z,1018.25
2023-04-19T01:25:15.990Z,1018.21
2023-04-19T01:31:39.132Z,1018.21
2023-04-19T01:37:58.988Z,1018.21
2023-04-19T01:44:22.040Z,1018.19
2023-04-19T01:50:42.004Z,1018.11
2023-04-19T01:57:04.977Z,1018.09
2023-04-19T02:03:25.219Z,1018.05
2023-04-19T02:09:48.014Z,1018.01
2023-04-19T02:16:08.031Z,1017.99
2023-04-19T02:22:31.001Z,1017.95
2023-04-19T02:28:51.032Z,1017.91
2023-04-19T02:35:13.997Z,1017.89
2023-04-19T02:41:34.033Z,1017.91
2023-04-19T02:47:57.093Z,1017.93
2023-04-19T02:54:17.221Z,1017.93
2023-04-19T03:00:40.001Z,1017.87
2023-04-19T03:07:00.165Z,1017.87
2023-04-19T03:13:22.993Z,1017.83
2023-04-19T03:19:43.008Z,1017.78
2023-04-19T03:43:06.989Z,1017.68
2023-04-19T03:49:29.965Z,1017.64
2023-04-19T03:55:49.990Z,1017.62
2023-04-19T04:02:13.028Z,1017.58
2023-04-19T04:08:32.990Z,1017.6
2023-04-19T04:14:55.975Z,1017.6
2023-04-19T04:21:16.051Z,1017.58
2023-04-19T04:27:38.962Z,1017.58
2023-04-19T04:33:58.975Z,1017.6
2023-04-19T04:40:22.073Z,1017.64
2023-04-19T04:46:42.026Z,1017.62
2023-04-19T04:53:04.993Z,1017.6
2023-04-19T04:59:25.072Z,1017.56
2023-04-19T05:05:48.006Z,1017.58
2023-04-19T05:12:08.000Z,1017.58
2023-04-19T05:18:31.021Z,1017.64
2023-04-19T05:24:51.008Z,1017.64
2023-04-19T05:31:14.083Z,1017.66
2023-04-19T05:37:34.009Z,1017.66
2023-04-19T05:43:57.031Z,1017.6
2023-04-19T05:50:17.024Z,1017.54
2023-04-19T05:56:40.026Z,1017.48
2023-04-19T06:03:00.214Z,1017.46
2023-04-19T06:09:22.987Z,1017.5
2023-04-19T06:15:43.035Z,1017.56
2023-04-19T06:22:05.983Z,1017.52
2023-04-19T06:28:25.996Z,1017.52
2023-04-19T06:34:49.023Z,1017.54
2023-04-19T06:41:08.972Z,1017.56
2023-04-19T06:47:32.967Z,1017.54
2023-04-19T06:53:52.085Z,1017.5
2023-04-19T07:00:14.995Z,1017.46
2023-04-19T07:06:35.029Z,1017.46
2023-04-19T07:12:58.109Z,1017.44
2023-04-19T07:19:18.051Z,1017.42
2023-04-19T07:25:41.017Z,1017.36
2023-04-19T07:32:01.054Z,1017.33
2023-04-19T07:38:24.010Z,1017.29
2023-04-19T07:44:43.995Z,1017.21
2023-04-19T07:51:07.075Z,1017.23
2023-04-19T07:57:26.990Z,1017.19
2023-04-19T08:03:50.217Z,1017.17
2023-04-19T08:10:10.043Z,1017.19
2023-04-19T08:17:11.317Z,1017.13
2023-04-19T08:22:53.006Z,1017.05
2023-04-19T08:29:16.406Z,1016.99
2023-04-19T08:35:35.985Z,1016.97
2023-04-19T08:42:05.888Z,1016.94
2023-04-19T08:48:19.151Z,1016.88
2023-04-19T09:12:00.076Z,1016.68
2023-04-19T09:18:22.981Z,1016.68
2023-04-19T09:31:15.483Z,1016.62
2023-04-19T09:37:38.899Z,1016.6
2023-04-19T09:50:19.173Z,1016.45
2023-04-19T09:56:31.997Z,1016.41
2023-04-19T10:02:52.306Z,1016.35
2023-04-19T10:09:15.226Z,1016.27
2023-04-19T10:15:47.137Z,1016.21
2023-04-19T10:21:57.999Z,1016.23
2023-04-19T10:28:18.021Z,1016.15
2023-04-19T10:34:40.995Z,1016.09
2023-04-19T10:41:01.064Z,1016.01
2023-04-19T10:47:24.222Z,1015.98
2023-04-19T10:53:43.984Z,1015.88
2023-04-19T11:00:06.982Z,1015.8
2023-04-19T11:06:27.071Z,1015.65
2023-04-19T11:12:49.992Z,1015.6
2023-04-19T11:19:10.039Z,1015.56
2023-04-19T11:25:33.013Z,1015.5
2023-04-19T11:31:53.001Z,1015.4
2023-04-19T11:38:16.003Z,1015.28
2023-04-19T11:44:36.082Z,1015.24
2023-04-19T11:50:59.030Z,1015.18
2023-04-19T11:57:19.026Z,1015.16
2023-04-19T12:03:42.144Z,1015.16
2023-04-19T12:10:01.996Z,1015.13
2023-04-19T12:16:25.007Z,1015.09
2023-04-19T12:22:45.035Z,1015.05
2023-04-19T12:29:07.988Z,1015.01
2023-04-19T12:35:28.002Z,1014.91
2023-04-19T12:41:51.042Z,1014.85
2023-04-19T12:48:10.987Z,1014.79
2023-04-19T12:54:33.999Z,1014.75
2023-04-19T13:00:54.123Z,1014.73
2023-04-19T13:07:16.990Z,1014.71
2023-04-19T13:13:36.982Z,1014.62
2023-04-19T13:20:00.023Z,1014.58
2023-04-19T13:26:20.010Z,1014.52
2023-04-19T13:32:43.015Z,1014.46
2023-04-19T13:39:03.082Z,1014.4
2023-04-19T13:45:25.987Z,1014.26
2023-04-19T13:51:49.964Z,1014.21
2023-04-19T13:58:09.020Z,1014.17
2023-04-19T14:04:29.164Z,1014.09
2023-04-19T14:10:52.000Z,1014.03
2023-04-19T14:17:12.068Z,1013.93
2023-04-19T14:23:34.988Z,1013.91
2023-04-19T14:29:54.984Z,1013.87
2023-04-19T14:36:18.019Z,1013.79
2023-04-19T14:59:23.544Z,1013.68
2023-04-19T15:05:43.210Z,1013.68
2023-04-19T15:12:06.001Z,1013.7
2023-04-19T15:18:26.062Z,1013.68
2023-04-19T15:24:49.006Z,1013.66
2023-04-19T15:31:09.154Z,1013.62
2023-04-19T15:37:32.155Z,1013.6
2023-04-19T15:43:51.999Z,1013.58
2023-04-19T15:50:15.224Z,1013.62
2023-04-19T15:56:35.015Z,1013.64
2023-04-19T16:02:58.118Z,1013.64
2023-04-19T16:09:18.273Z,1013.72
2023-04-19T16:15:41.006Z,1013.7
2023-04-19T16:22:00.986Z,1013.74
2023-04-19T16:28:24.005Z,1013.77
2023-04-19T16:34:44.006Z,1013.74
2023-04-19T16:41:06.976Z,1013.75
2023-04-19T16:47:27.073Z,1013.72
2023-04-19T16:53:50.060Z,1013.7
2023-04-19T17:00:09.994Z,1013.68
2023-04-19T17:06:32.994Z,1013.64
2023-04-19T17:12:53.029Z,1013.64
2023-04-19T17:19:16.170Z,1013.64
2023-04-19T17:25:35.982Z,1013.62
2023-04-19T17:31:59.060Z,1013.56
2023-04-19T17:38:18.983Z,1013.56
2023-04-19T17:44:42.122Z,1013.54
2023-04-19T17:51:02.021Z,1013.56
2023-04-19T17:57:24.998Z,1013.56
2023-04-19T18:03:45.158Z,1013.56
2023-04-19T18:10:08.035Z,1013.56
2023-04-19T18:16:28.004Z,1013.56
2023-04-19T18:22:51.004Z,1013.58
2023-04-19T18:29:11.019Z,1013.62
2023-04-19T18:35:33.982Z,1013.68
2023-04-19T18:41:54.357Z,1013.7
2023-04-19T18:48:17.119Z,1013.7
2023-04-19T18:54:37.006Z,1013.75
2023-04-19T19:01:00.057Z,1013.79
2023-04-19T19:07:34.728Z,1013.87
2023-04-19T19:13:42.976Z,1013.95
2023-04-19T19:20:02.973Z,1014.05
2023-04-19T19:26:26.049Z,1014.05
2023-04-19T19:32:46.029Z,1014.09
2023-04-19T19:39:09.015Z,1014.09
2023-04-19T19:45:29.038Z,1014.15
2023-04-19T19:51:58.045Z,1014.13
2023-04-19T19:58:35.243Z,1014.17
2023-04-19T20:04:35.265Z,1014.17
2023-04-19T20:27:19.978Z,1014.3
2023-04-19T20:33:43.010Z,1014.36
2023-04-19T20:40:03.012Z,1014.38
2023-04-19T20:46:26.133Z,1014.36
2023-04-19T20:52:45.980Z,1014.38
2023-04-19T20:59:09.017Z,1014.38
2023-04-19T21:05:29.010Z,1014.42
2023-04-19T21:11:51.972Z,1014.4
2023-04-19T21:18:11.987Z,1014.42
2023-04-19T21:24:35.049Z,1014.38
2023-04-19T21:30:55.013Z,1014.36
2023-04-19T21:37:17.983Z,1014.36
2023-04-19T21:43:38.040Z,1014.34
2023-04-19T21:50:00.979Z,1014.28
2023-04-19T21:56:21.005Z,1014.24
2023-04-19T22:20:39.022Z,1014.11
2023-04-19T22:26:58.982Z,1014.03
2023-04-19T22:33:22.029Z,1013.95
2023-04-19T22:39:42.043Z,1013.91
2023-04-19T22:46:05.036Z,1013.87
2023-04-19T22:52:25.036Z,1013.81
2023-04-19T22:58:48.012Z,1013.7
2023-04-19T23:05:08.068Z,1013.62
2023-04-19T23:11:30.981Z,1013.54
2023-04-19T23:17:51.079Z,1013.44
2023-04-19T23:24:14.012Z,1013.4
2023-04-19T23:30:33.996Z,1013.3
2023-04-19T23:36:57.052Z,1013.25
2023-04-19T23:43:16.984Z,1013.25
2023-04-19T23:49:40.006Z,1013.23
2023-04-19T23:56:00.088Z,1013.1
